In Rescue
 
Open Full Screen Window  High Contrast Mode
Wind Gusting 00 knots
09
February 25, 2021 3:48 PM CST
Weather Information
Wind Direction
  240 °
Wind Speed
  09 kt (10 mph)
Wind Gust
  00 kt (0 mph)
Altimeter
30.23 in
Visibility
10 SM
Temperature
02° C
36° F
Dewpoint
-06° C
21° F
Humidity
56%
1hr Rain Fall
00.00 in.
24hr Rain Fall
00.00 in.
Sky Condition
Clear
VFR

METAR KSGS 252148Z AUTO 24009KT 10SM CLR 02/M06 A3023 RMK AO2 T00241059

FAA Disclaimer: The data displayed is for advisory purposes only and is not to be used for flight planning or operations.